Latest Weather Observations for Weipa

IDQ60801

Issued at 9:32 am EST Wednesday 29 June 2016 (issued every 30 minutes, with the page automatically refreshed every 10 minutes)

About weather observations | Map of weather stations | Latest weather observations for QLD | Other Formats
Station Details ID: 027045 Name: WEIPA AERO Lat: -12.68 Lon: 141.92 Height: 17.96 m
Data from the previous 72 hours. | See also: Recent months at Weipa
Date/Time
EST
Temp
°C
App
Temp
°C
Dew
Point
°C
Rel
Hum
%
Delta-T
°C
Wind Press
QNH
hPa
Press
MSL
hPa
Rain since
9am
mm
Dir  Spd
km/h
Gust
km/h
Spd
kts
Gust
kts
29/09:30am 26.0 28.2 21.1 74 3.2 SE 11 19 6 10 1016.0 - 0.0
29/09:00am 25.1 27.6 21.1 78 2.6 SSE 9 15 5 8 1015.8 1015.7 0.0
29/08:30am 23.7 26.7 20.9 84 1.8 S 6 9 3 5 1015.6 - 0.0
29/08:00am 22.8 25.9 21.0 89 1.2 SSE 6 9 3 5 1015.4 - 0.0
29/07:30am 22.0 24.9 20.7 92 0.8 SSE 6 9 3 5 1015.1 - 0.0
29/07:00am 20.6 24.3 20.0 96 0.4 CALM 0 0 0 0 1014.9 - 0.0
29/06:30am 20.7 24.4 19.9 95 0.5 CALM 0 0 0 0 1014.6 - 0.0
29/06:00am 21.0 24.0 20.1 95 0.6 SSE 4 6 2 3 1014.3 1014.2 0.0
29/05:30am 21.3 24.0 20.3 94 0.6 S 6 7 3 4 1014.1 - 0.0
29/05:00am 21.6 24.8 20.4 93 0.8 SE 4 6 2 3 1013.9 - 0.0
29/04:30am 22.0 24.8 20.4 91 1.0 SSE 6 7 3 4 1013.8 - 0.0
29/04:00am 22.4 25.3 20.6 89 1.2 SSE 6 9 3 5 1013.8 - 0.0
29/03:30am 22.6 24.9 20.6 88 1.3 SE 9 11 5 6 1014.0 - 0.0
29/03:00am 22.8 25.5 20.7 88 1.4 ESE 7 13 4 7 1014.2 1014.1 0.0
29/02:30am 22.8 25.5 20.6 87 1.4 ESE 7 11 4 6 1014.3 - 0.0
29/02:00am 22.8 25.5 20.6 87 1.4 ESE 7 11 4 6 1014.7 - 0.0
29/01:30am 23.2 25.5 20.7 86 1.6 ESE 9 13 5 7 1014.8 - 0.0
29/01:00am 23.2 25.5 20.6 85 1.7 ESE 9 11 5 6 1015.1 - 0.0
29/12:30am 23.3 25.5 20.4 84 1.9 SE 9 11 5 6 1015.3 - 0.0
29/12:00am 23.5 26.0 20.3 82 2.1 ESE 7 9 4 5 1015.5 1015.4 0.0
 
Date/Time
EST
Temp
°C
App
Temp
°C
Dew
Point
°C
Rel
Hum
%
Delta-T
°C
Wind Press
QNH
hPa
Press
MSL
hPa
Rain since
9am
mm
Dir  Spd
km/h
Gust
km/h
Spd
kts
Gust
kts
28/11:30pm 24.0 25.7 20.2 79 2.5 SE 11 15 6 8 1015.6 - 0.0
28/11:00pm 24.4 25.7 20.1 77 2.8 ESE 13 17 7 9 1015.8 - 0.0
28/10:30pm 24.5 26.5 19.9 75 3.0 ESE 9 13 5 7 1016.0 - 0.0
28/10:00pm 25.0 26.9 19.7 72 3.4 ESE 9 13 5 7 1015.9 - 0.0
28/09:30pm 25.5 26.8 19.4 69 3.9 E 11 15 6 8 1015.6 - 0.0
28/09:00pm 26.0 26.5 19.2 66 4.4 ESE 15 22 8 12 1015.4 1015.3 0.0
28/08:30pm 26.4 27.2 19.0 63 4.7 E 13 19 7 10 1015.2 - 0.0
28/08:00pm 26.7 27.4 18.9 62 5.0 E 13 19 7 10 1014.8 - 0.0
28/07:30pm 27.6 26.8 18.5 57 5.8 ESE 20 30 11 16 1014.3 - 0.0
28/07:00pm 28.1 27.4 18.7 56 6.0 E 20 30 11 16 1014.0 - 0.0
28/06:30pm 28.4 28.8 19.0 56 6.1 E 15 20 8 11 1013.7 - 0.0
28/06:00pm 29.3 28.8 18.7 52 6.8 E 19 32 10 17 1013.1 1013.0 0.0
28/05:30pm 30.1 29.9 19.4 52 7.0 E 19 26 10 14 1012.8 - 0.0
28/05:00pm 30.7 30.2 19.2 50 7.5 E 20 33 11 18 1012.4 - 0.0
28/04:30pm 31.6 31.0 18.8 46 8.3 E 20 32 11 17 1012.0 - 0.0
28/04:00pm 31.0 29.7 18.2 46 8.2 ESE 22 35 12 19 1011.8 - 0.0
28/03:30pm 31.2 29.0 17.8 44 8.6 E 26 37 14 20 1011.8 - 0.0
28/03:00pm 31.8 30.4 17.9 43 8.9 ESE 22 32 12 17 1012.0 1011.9 0.0
28/02:30pm 32.7 31.4 18.2 42 9.4 E 22 35 12 19 1012.3 - 0.0
28/02:00pm 32.2 31.5 18.6 44 8.8 ESE 20 32 11 17 1012.8 - 0.0
28/01:30pm 32.1 30.0 18.1 43 9.0 ESE 26 37 14 20 1013.2 - 0.0
28/01:00pm 31.0 29.7 19.1 49 7.8 ESE 24 33 13 18 1013.6 - 0.0
28/12:30pm 30.6 30.5 19.9 52 7.0 ESE 20 33 11 18 1014.0 - 0.0
28/12:00pm 30.2 31.1 20.9 57 6.2 SE 17 24 9 13 1014.6 1014.5 0.0
28/11:30am 29.0 29.7 21.2 62 5.2 ESE 19 28 10 15 1015.0 - 0.0
28/11:00am 28.5 28.1 20.9 63 5.0 ESE 24 32 13 17 1015.3 - 0.0
28/10:30am 28.1 27.8 21.1 65 4.7 ESE 24 33 13 18 1015.5 - 0.0
28/10:00am 26.5 29.3 21.5 74 3.3 SSE 9 19 5 10 1015.5 - 0.0
28/09:30am 25.9 28.9 21.9 78 2.7 SSE 9 22 5 12 1015.6 - 0.0
28/09:00am 24.1 26.9 21.6 86 1.7 SSE 9 13 5 7 1015.6 1015.5 0.0
28/08:30am 22.6 26.5 21.2 92 0.9 SSE 2 6 1 3 1015.4 - 0.0
28/08:00am 21.4 25.1 20.8 96 0.4 S 2 4 1 2 1015.1 - 0.0
28/07:45am 21.1 25.1 20.6 97 0.3 CALM 0 0 0 0 1014.9 - 0.0
28/07:30am 20.7 24.6 20.4 98 0.2 CALM 0 0 0 0 1014.7 - 0.0
28/07:00am 20.1 23.0 19.8 98 0.2 S 4 6 2 3 1014.3 - 0.0
28/06:30am 19.9 22.7 19.6 98 0.2 SSE 4 6 2 3 1014.1 - 0.0
28/06:00am 19.7 23.1 19.4 98 0.2 CALM 0 0 0 0 1013.9 1013.8 0.0
28/05:30am 19.5 22.8 19.1 98 0.3 CALM 0 0 0 0 1013.7 - 0.0
28/05:08am 19.3 22.0 18.7 96 0.4 S 2 7 1 4 1013.5 - 0.0
28/05:00am 19.2 21.9 18.6 96 0.4 SSE 2 4 1 2 1013.4 - 0.0
28/04:30am 19.1 22.1 18.4 96 0.4 CALM 0 0 0 0 1013.2 - 0.0
28/04:00am 18.9 21.8 18.1 95 0.5 CALM 0 0 0 0 1013.3 - 0.0
28/03:30am 19.0 21.9 18.2 95 0.5 CALM 0 2 0 1 1013.6 - 0.0
28/03:00am 19.4 22.1 18.6 95 0.5 E 2 4 1 2 1013.7 1013.6 0.0
28/02:30am 19.6 22.0 18.8 95 0.5 SSE 4 6 2 3 1013.9 - 0.0
28/02:00am 19.7 22.5 18.8 94 0.6 SE 2 4 1 2 1014.0 - 0.0
28/01:30am 19.9 23.1 18.9 94 0.6 CALM 0 4 0 2 1014.3 - 0.0
28/01:00am 20.0 23.1 18.7 92 0.8 CALM 0 0 0 0 1014.5 - 0.0
28/12:30am 21.0 23.9 19.1 89 1.2 SE 2 4 1 2 1014.5 - 0.0
28/12:00am 21.5 24.0 19.1 86 1.5 ESE 4 6 2 3 1014.5 1014.4 0.0
 
Date/Time
EST
Temp
°C
App
Temp
°C
Dew
Point
°C
Rel
Hum
%
Delta-T
°C
Wind Press
QNH
hPa
Press
MSL
hPa
Rain since
9am
mm
Dir  Spd
km/h
Gust
km/h
Spd
kts
Gust
kts
27/11:30pm 21.7 23.8 18.9 84 1.8 SSE 6 11 3 6 1014.6 - 0.0
27/11:00pm 22.7 25.2 19.0 79 2.3 ESE 4 6 2 3 1014.6 - 0.0
27/10:30pm 23.2 25.3 18.9 77 2.7 ESE 6 9 3 5 1014.7 - 0.0
27/10:00pm 23.8 25.3 18.8 73 3.2 E 9 11 5 6 1014.7 - 0.0
27/09:30pm 24.2 25.6 18.7 71 3.5 E 9 13 5 7 1014.5 - 0.0
27/09:00pm 24.6 26.3 18.4 68 3.9 ESE 7 9 4 5 1014.2 1014.1 0.0
27/08:30pm 25.7 26.4 18.0 62 4.9 E 11 15 6 8 1013.8 - 0.0
27/08:00pm 25.5 27.3 18.2 64 4.6 ESE 6 9 3 5 1013.5 - 0.0
27/07:30pm 26.4 28.1 18.0 60 5.3 ESE 6 7 3 4 1013.0 - 0.0
27/07:00pm 27.2 28.7 17.7 56 6.0 ESE 6 6 3 3 1012.5 - 0.0
27/06:30pm 28.5 29.3 17.4 51 7.0 E 9 13 5 7 1012.0 - 0.0
27/06:00pm 29.8 30.7 17.5 47 7.8 ESE 9 13 5 7 1011.7 1011.6 0.0
27/05:30pm 30.9 30.7 16.7 42 8.9 E 13 20 7 11 1011.4 - 0.0
27/05:00pm 31.7 30.1 16.6 40 9.5 ESE 20 26 11 14 1011.0 - 0.0
27/04:30pm 31.7 30.7 16.6 40 9.5 E 17 26 9 14 1010.7 - 0.0
27/04:00pm 31.9 30.6 16.7 40 9.6 E 19 28 10 15 1010.6 - 0.0
27/03:30pm 31.8 30.7 17.3 42 9.2 ESE 19 32 10 17 1010.8 - 0.0
27/03:00pm 31.7 30.5 17.6 43 9.0 ESE 20 30 11 16 1011.2 1011.1 0.0
27/02:30pm 31.0 31.6 18.6 47 8.0 ESE 13 19 7 10 1011.4 - 0.0
27/02:00pm 31.2 30.6 18.9 48 8.0 ESE 20 32 11 17 1011.8 - 0.0
27/01:30pm 30.4 29.4 18.8 50 7.5 ESE 22 32 12 17 1012.2 - 0.0
27/01:00pm 30.6 29.2 18.7 49 7.7 ESE 24 35 13 19 1012.7 - 0.0
27/12:30pm 30.0 29.3 18.6 50 7.4 ESE 20 32 11 17 1013.1 - 0.0
27/12:00pm 29.6 27.5 18.9 52 6.9 E 28 37 15 20 1013.6 1013.5 0.0
27/11:30am 28.6 27.4 19.3 57 6.0 ESE 24 41 13 22 1014.0 - 0.0
27/11:00am 28.1 28.7 20.2 62 5.2 ESE 17 24 9 13 1014.3 - 0.0
27/10:30am 27.4 28.2 20.6 66 4.5 SE 17 30 9 16 1014.3 - 0.0
27/10:00am 26.6 27.5 20.9 71 3.8 SE 17 28 9 15 1014.4 - 0.0
27/09:30am 24.6 26.1 21.3 82 2.2 ESE 15 22 8 12 1014.7 - 0.0
27/09:00am 23.2 25.3 21.7 91 1.0 SE 13 19 7 10 1014.6 1014.5 0.0
27/08:30am 21.9 25.1 21.3 96 0.4 SSE 6 11 3 6 1014.5 - 0.0
27/08:00am 21.3 24.3 20.9 98 0.3 SSE 6 7 3 4 1014.2 - 0.0
27/07:30am 20.6 23.3 20.2 98 0.3 SSE 6 6 3 3 1014.0 - 0.0
27/07:00am 20.3 23.2 19.9 98 0.3 E 4 6 2 3 1013.4 - 0.0
27/06:34am 20.2 22.6 19.7 97 0.3 SE 6 7 3 4 1013.1 - 0.0
27/06:30am 20.1 22.4 19.5 96 0.4 SE 6 7 3 4 1013.1 - 0.0
27/06:00am 20.3 23.9 19.8 97 0.3 CALM 0 0 0 0 1012.9 1012.8 0.0
27/05:51am 20.3 23.9 19.8 97 0.3 CALM 0 2 0 1 1012.8 - 0.0
27/05:30am 20.4 23.2 19.7 96 0.4 SE 4 6 2 3 1012.6 - 0.0
27/05:17am 20.6 24.3 19.9 96 0.4 CALM 0 4 0 2 1012.6 - 0.0
27/05:05am 20.6 24.3 19.9 96 0.4 CALM 0 0 0 0 1012.6 - 0.0
27/05:00am 20.7 24.4 20.0 96 0.4 CALM 0 0 0 0 1012.5 - 0.0
27/04:30am 20.9 23.9 20.1 95 0.5 SE 4 6 2 3 1012.3 - 0.0
27/04:00am 21.3 24.0 20.3 94 0.6 ESE 6 6 3 3 1012.3 - 0.0
27/03:30am 21.9 25.2 20.7 93 0.8 SSE 4 7 2 4 1012.3 - 0.0
27/03:00am 21.9 25.2 20.7 93 0.8 SSE 4 6 2 3 1012.6 1012.5 0.0
27/02:30am 21.8 25.0 20.6 93 0.8 SSE 4 6 2 3 1012.8 - 0.0
27/02:00am 21.9 25.1 20.6 92 0.8 SE 4 6 2 3 1012.9 - 0.0
27/01:30am 22.2 25.4 20.5 90 1.1 ESE 4 6 2 3 1013.0 - 0.0
27/01:00am 22.5 25.1 20.4 88 1.4 SE 7 9 4 5 1012.9 - 0.0
27/12:30am 22.4 25.2 20.4 88 1.3 ESE 6 9 3 5 1012.8 - 0.0
27/12:00am 22.7 25.2 20.3 86 1.6 ESE 7 11 4 6 1012.8 1012.7 0.0
 
Date/Time
EST
Temp
°C
App
Temp
°C
Dew
Point
°C
Rel
Hum
%
Delta-T
°C
Wind Press
QNH
hPa
Press
MSL
hPa
Rain since
9am
mm
Dir  Spd
km/h
Gust
km/h
Spd
kts
Gust
kts
26/11:30pm 23.0 25.5 20.3 85 1.7 SE 7 9 4 5 1013.1 - 0.0
26/11:00pm 23.3 25.5 20.4 84 1.9 E 9 13 5 7 1013.2 - 0.0
26/10:30pm 23.5 26.7 20.5 83 2.0 ESE 4 6 2 3 1013.3 - 0.0
26/10:00pm 24.1 26.7 20.4 80 2.4 ESE 7 9 4 5 1013.4 - 0.0
26/09:30pm 24.6 26.8 20.3 77 2.8 E 9 11 5 6 1013.2 - 0.0
26/09:00pm 25.3 27.4 20.1 73 3.4 E 9 15 5 8 1012.8 1012.7 0.0
26/08:30pm 25.6 27.6 19.9 70 3.7 E 9 15 5 8 1012.7 - 0.0
26/08:00pm 26.1 27.5 19.5 67 4.3 E 11 19 6 10 1012.4 - 0.0
26/07:30pm 26.5 28.3 19.5 65 4.5 E 9 15 5 8 1011.7 - 0.0
26/07:00pm 27.0 28.8 19.6 64 4.8 E 9 15 5 8 1011.3 - 0.0
26/06:30pm 27.7 29.5 19.5 61 5.3 E 9 17 5 9 1011.0 - 0.0
26/06:00pm 28.6 29.9 19.2 56 6.1 E 11 17 6 9 1010.8 1010.7 0.0
26/05:30pm 29.6 30.3 18.9 52 6.9 E 13 19 7 10 1010.4 - 0.0
26/05:00pm 30.7 31.5 19.1 50 7.6 E 13 20 7 11 1010.1 - 0.0
26/04:30pm 30.9 31.4 18.4 47 8.1 ESE 13 20 7 11 1009.7 - 0.0
26/04:00pm 30.5 31.5 18.6 49 7.7 ESE 11 17 6 9 1009.5 - 0.0
26/03:30pm 31.3 30.5 17.9 44 8.6 ESE 19 28 10 15 1009.5 - 0.0
26/03:00pm 31.4 30.4 18.0 44 8.6 ESE 20 28 11 15 1009.4 1009.3 0.0
26/02:30pm 31.1 30.5 18.4 46 8.2 ESE 19 26 10 14 1009.7 - 0.0
26/02:00pm 30.9 30.2 18.6 48 8.0 ESE 20 26 11 14 1010.0 - 0.0
26/01:30pm 29.9 29.5 18.9 51 7.1 SE 19 28 10 15 1010.2 - 0.0
26/01:00pm 30.1 29.7 19.3 52 7.0 SE 20 32 11 17 1010.8 - 0.0
26/12:30pm 29.1 28.6 19.2 55 6.4 E 20 26 11 14 1011.5 - 0.0
26/12:00pm 29.1 28.7 19.4 55 6.3 E 20 35 11 19 1011.8 1011.7 0.0
26/11:30am 29.0 29.4 20.9 61 5.4 ESE 20 32 11 17 1012.2 - 0.0
26/11:00am 28.0 27.6 20.2 62 5.1 ESE 22 32 12 17 1012.5 - 0.0
26/10:30am 28.0 28.3 20.5 63 4.9 ESE 19 30 10 16 1012.8 - 0.0
26/10:00am 27.2 28.2 21.0 69 4.1 SE 17 26 9 14 1013.2 - 0.0

Other Formats:

Comma delimited format used in spreadsheet applications
http://www.bom.gov.au/fwo/IDQ60801/IDQ60801.94170.axf

JavaScript Object Notation format (JSON) in row-major order
http://www.bom.gov.au/fwo/IDQ60801/IDQ60801.94170.json